Time;durP1;ratioP1;P1;durP2;ratioP2;P2;SDS_P1;SDS_P2;PMS_P1;PMS_P2;Temp;Humidity;BMP_temperature;BMP_pressure;BME280_temperature;BME280_humidity;BME280_pressure;Samples;Min_cycle;Max_cycle;Signal;HPM_P1;HPM_P2
2024/04/06 00:02:23;;;;;;;0.50;0.50;;;;;;;9.32;77.40;97476.00;5041384;28;20053;-67
2024/04/06 00:04:49;;;;;;;0.40;0.40;;;;;;;9.19;77.24;97439.31;5040901;28;20110;-67
2024/04/06 00:07:15;;;;;;;0.40;0.40;;;;;;;9.58;76.85;97484.63;5041135;28;20060;-67
2024/04/06 00:09:40;;;;;;;0.40;0.40;;;;;;;9.39;76.84;97453.28;5037314;28;20064;-67
2024/04/06 00:12:06;;;;;;;0.40;0.40;;;;;;;9.38;78.40;97480.13;5020331;28;20096;-68
2024/04/06 00:14:32;;;;;;;0.40;0.40;;;;;;;9.43;78.54;97476.28;5027777;28;20056;-67
2024/04/06 00:16:58;;;;;;;0.40;0.40;;;;;;;9.58;77.88;97472.78;5005287;28;20050;-67
2024/04/06 00:19:24;;;;;;;0.40;0.40;;;;;;;9.83;77.05;97485.31;5030133;28;20048;-67
2024/04/06 00:21:49;;;;;;;0.40;0.40;;;;;;;9.59;76.10;97430.94;5041173;28;20063;-67
2024/04/06 00:24:16;;;;;;;0.50;0.50;;;;;;;9.93;75.34;97485.59;5040907;28;20150;-67
2024/04/06 00:26:44;;;;;;;0.40;0.40;;;;;;;9.93;75.71;97484.78;5040670;28;20056;-67
2024/04/06 00:29:09;;;;;;;0.50;0.50;;;;;;;9.87;75.79;97481.47;5040695;28;20066;-66
2024/04/06 00:31:35;;;;;;;0.40;0.40;;;;;;;9.90;75.41;97480.75;5040562;28;20057;-67
2024/04/06 00:34:03;;;;;;;0.40;0.40;;;;;;;9.90;75.38;97479.94;5040596;28;20057;-68
2024/04/06 00:36:30;;;;;;;0.40;0.40;;;;;;;9.91;75.15;97482.38;5040700;28;20079;-66
2024/04/06 00:38:56;;;;;;;0.40;0.40;;;;;;;9.96;74.43;97484.06;5041962;28;20056;-67
2024/04/06 00:41:22;;;;;;;0.40;0.40;;;;;;;10.01;74.26;97484.63;5023816;28;20064;-67
2024/04/06 00:43:49;;;;;;;0.40;0.40;;;;;;;9.99;73.13;97478.63;5040473;28;20528;-68
2024/04/06 00:46:16;;;;;;;0.40;0.40;;;;;;;9.95;73.41;97472.22;5040414;28;20053;-67
2024/04/06 00:48:42;;;;;;;0.43;0.43;;;;;;;9.76;73.60;97441.66;5040017;28;20063;-67
2024/04/06 00:51:08;;;;;;;0.50;0.50;;;;;;;10.01;73.92;97479.09;5023636;28;20067;-65
2024/04/06 00:53:33;;;;;;;0.50;0.50;;;;;;;9.91;75.40;97471.28;5041176;28;20057;-67
2024/04/06 00:56:00;;;;;;;0.43;0.43;;;;;;;10.00;74.06;97468.38;5040578;28;20056;-67
2024/04/06 00:58:27;;;;;;;0.40;0.40;;;;;;;9.70;74.20;97423.72;5039848;28;20053;-66
2024/04/06 01:00:53;;;;;;;0.43;0.43;;;;;;;10.11;74.10;97461.97;5040005;28;20056;-67
2024/04/06 01:03:19;;;;;;;0.43;0.43;;;;;;;9.86;73.21;97405.19;5023592;28;20114;-65
2024/04/06 01:05:46;;;;;;;0.50;0.50;;;;;;;9.39;72.62;97313.06;5040033;28;20057;-67
2024/04/06 01:08:11;;;;;;;0.50;0.50;;;;;;;10.23;72.47;97445.28;5040072;28;20613;-67
2024/04/06 01:10:37;;;;;;;0.50;0.50;;;;;;;10.04;72.57;97425.78;5018967;28;20141;-67
2024/04/06 01:13:03;;;;;;;0.40;0.40;;;;;;;9.96;73.25;97440.59;5001058;28;20073;-67
2024/04/06 01:15:32;;;;;;;0.50;0.50;;;;;;;9.96;73.45;97435.06;5018300;28;20085;-67
2024/04/06 01:17:58;;;;;;;0.40;0.40;;;;;;;9.03;73.96;97292.00;5020085;28;20135;-67
2024/04/06 01:20:26;;;;;;;0.50;0.50;;;;;;;9.59;73.88;97374.81;5017779;28;20049;-66
2024/04/06 01:22:52;;;;;;;0.43;0.43;;;;;;;10.03;73.39;97429.72;5020210;28;20111;-67
2024/04/06 01:25:17;;;;;;;0.43;0.43;;;;;;;9.90;74.11;97436.50;5020543;28;20061;-66
2024/04/06 01:27:44;;;;;;;0.50;0.50;;;;;;;7.42;74.00;97041.84;5021040;28;20058;-67
2024/04/06 01:30:14;;;;;;;0.40;0.40;;;;;;;9.79;74.43;97440.94;5004022;28;20064;-68
2024/04/06 01:32:51;;;;;;;0.40;0.40;;;;;;;9.65;74.88;97437.00;5019819;28;20602;-68
2024/04/06 01:35:18;;;;;;;0.50;0.50;;;;;;;9.58;74.95;97440.38;5019879;28;20064;-67
2024/04/06 01:37:46;;;;;;;0.50;0.50;;;;;;;9.48;76.05;97435.38;5003740;28;20064;-67
2024/04/06 01:40:12;;;;;;;0.40;0.40;;;;;;;9.34;76.66;97429.47;4673497;28;10000970;-66
2024/04/06 01:42:38;;;;;;;0.40;0.40;;;;;;;9.28;77.58;97430.06;5019947;28;20068;-68
2024/04/06 01:45:05;;;;;;;0.40;0.40;;;;;;;9.07;77.21;97386.06;5003556;28;20053;-67
2024/04/06 01:47:31;;;;;;;0.40;0.40;;;;;;;9.32;77.61;97426.22;5019811;28;20058;-68
2024/04/06 01:50:03;;;;;;;0.40;0.40;;;;;;;8.61;78.18;97364.56;5019635;28;20251;-67
2024/04/06 01:52:29;;;;;;;0.40;0.40;;;;;;;9.17;78.10;97440.78;5019920;28;20123;-68
2024/04/06 01:54:55;;;;;;;0.40;0.40;;;;;;;9.30;77.82;97445.13;5015886;28;20066;-67
2024/04/06 01:57:21;;;;;;;0.40;0.40;;;;;;;9.34;77.76;97440.50;5001720;28;20513;-67
2024/04/06 01:59:47;;;;;;;0.40;0.40;;;;;;;8.67;77.96;97352.13;5015831;28;20087;-67
2024/04/06 02:02:13;;;;;;;0.40;0.40;;;;;;;9.30;78.37;97439.59;5023646;28;20135;-66
2024/04/06 02:04:42;;;;;;;0.40;0.40;;;;;;;8.71;81.22;97460.75;5023318;28;20523;-67
2024/04/06 02:07:08;;;;;;;0.40;0.40;;;;;;;8.88;80.71;97450.22;5007422;28;20065;-67
2024/04/06 02:09:33;;;;;;;0.40;0.40;;;;;;;8.99;80.44;97453.31;5022906;28;20049;-67
2024/04/06 02:11:59;;;;;;;0.40;0.40;;;;;;;9.10;80.21;97451.66;5023173;28;20444;-67
2024/04/06 02:14:25;;;;;;;0.40;0.40;;;;;;;9.13;80.08;97448.19;5020188;28;20058;-67
2024/04/06 02:16:51;;;;;;;0.40;0.40;;;;;;;8.95;79.68;97433.03;5003627;28;20092;-67
2024/04/06 02:19:17;;;;;;;0.40;0.40;;;;;;;9.12;79.16;97454.84;4994726;28;20115;-67
2024/04/06 02:21:42;;;;;;;0.40;0.40;;;;;;;9.12;78.57;97452.91;5022815;28;20060;-66
2024/04/06 02:24:08;;;;;;;0.40;0.40;;;;;;;9.17;78.51;97457.38;5006440;28;20128;-67
2024/04/06 02:26:34;;;;;;;0.40;0.40;;;;;;;5.89;78.21;96927.44;5023148;28;20064;-67
2024/04/06 02:29:00;;;;;;;0.40;0.40;;;;;;;8.77;78.65;97393.06;5022756;28;20480;-67
2024/04/06 02:31:27;;;;;;;0.40;0.40;;;;;;;8.63;79.66;97384.38;5006275;28;20499;-67
2024/04/06 02:33:53;;;;;;;0.40;0.40;;;;;;;8.61;80.45;97389.41;5022756;28;20508;-68
2024/04/06 02:36:19;;;;;;;0.35;0.35;;;;;;;7.53;79.98;97195.34;5007598;28;20247;-68
2024/04/06 02:38:47;;;;;;;0.40;0.40;;;;;;;9.16;80.24;97419.84;5023387;28;20405;-67
2024/04/06 02:41:12;;;;;;;0.40;0.40;;;;;;;9.14;79.18;97408.34;5024286;28;20508;-67
2024/04/06 02:43:39;;;;;;;0.40;0.40;;;;;;;8.56;79.41;97304.06;5022926;28;20124;-67
2024/04/06 02:46:04;;;;;;;0.40;0.40;;;;;;;9.38;79.14;97418.47;5022959;28;20441;-67
2024/04/06 02:48:30;;;;;;;0.40;0.40;;;;;;;9.43;79.34;97409.94;5022424;28;20087;-67
2024/04/06 02:50:56;;;;;;;0.40;0.40;;;;;;;9.49;78.62;97417.63;5022454;28;20532;-66
2024/04/06 02:53:21;;;;;;;0.40;0.40;;;;;;;9.57;77.90;97422.19;5022014;28;20449;-66
2024/04/06 02:55:48;;;;;;;0.35;0.35;;;;;;;9.52;77.68;97413.31;5022835;28;20150;-67
2024/04/06 02:58:13;;;;;;;0.40;0.40;;;;;;;8.81;76.18;97347.00;5005830;28;20053;-67
2024/04/06 03:00:39;;;;;;;0.40;0.40;;;;;;;9.11;76.88;97414.56;5016840;28;20050;-67
2024/04/06 03:03:05;;;;;;;0.40;0.40;;;;;;;8.89;77.98;97426.97;5002281;28;20085;-67
2024/04/06 03:05:31;;;;;;;0.40;0.40;;;;;;;8.86;78.95;97415.81;5020655;28;20054;-67
2024/04/06 03:07:57;;;;;;;0.40;0.40;;;;;;;8.81;79.00;97416.06;5022087;28;20057;-68
2024/04/06 03:10:23;;;;;;;0.40;0.40;;;;;;;7.52;79.58;97232.31;5022026;28;20053;-67
2024/04/06 03:12:48;;;;;;;0.40;0.40;;;;;;;8.59;80.28;97431.19;5006029;28;20063;-67
2024/04/06 03:15:14;;;;;;;0.40;0.40;;;;;;;8.72;80.05;97435.53;5002058;28;20588;-67
2024/04/06 03:17:40;;;;;;;0.30;0.30;;;;;;;8.57;80.25;97427.16;5002831;28;20085;-68
2024/04/06 03:20:08;;;;;;;0.40;0.40;;;;;;;8.69;80.52;97436.22;5016566;28;20128;-68
2024/04/06 03:22:34;;;;;;;0.40;0.40;;;;;;;8.75;81.37;97442.31;5006226;28;20087;-69
2024/04/06 03:24:59;;;;;;;0.40;0.40;;;;;;;8.87;81.15;97436.75;5021648;28;20049;-68
2024/04/06 03:27:26;;;;;;;0.40;0.40;;;;;;;8.95;79.92;97427.53;5022151;28;20144;-68
2024/04/06 03:29:51;;;;;;;0.40;0.40;;;;;;;8.98;80.09;97429.56;5021970;28;20060;-68
2024/04/06 03:32:17;;;;;;;0.40;0.40;;;;;;;8.63;79.91;97370.56;5022319;28;20068;-68
2024/04/06 03:34:43;;;;;;;0.40;0.40;;;;;;;8.70;79.48;97365.22;5021565;28;20764;-68
2024/04/06 03:37:09;;;;;;;0.40;0.40;;;;;;;9.04;79.55;97428.97;5021432;28;20057;-68
2024/04/06 03:39:35;;;;;;;0.40;0.40;;;;;;;9.03;79.25;97434.88;5004937;28;20061;-66
2024/04/06 03:42:00;;;;;;;0.40;0.40;;;;;;;9.05;79.34;97438.09;5021699;28;20053;-67
2024/04/06 03:44:26;;;;;;;0.40;0.40;;;;;;;8.61;78.51;97372.84;5021002;28;20065;-67
2024/04/06 03:46:52;;;;;;;0.40;0.40;;;;;;;8.66;79.01;97378.94;5021745;28;20391;-67
2024/04/06 03:49:18;;;;;;;0.30;0.30;;;;;;;8.34;80.24;97340.50;5020598;28;20057;-69
2024/04/06 03:51:44;;;;;;;0.40;0.40;;;;;;;8.61;80.43;97370.09;5021437;28;20064;-67
2024/04/06 03:54:10;;;;;;;0.40;0.40;;;;;;;9.01;81.09;97428.88;5021200;28;20053;-67
2024/04/06 03:56:37;;;;;;;0.40;0.40;;;;;;;9.03;80.24;97432.09;5021568;28;20053;-68
2024/04/06 03:59:03;;;;;;;0.40;0.40;;;;;;;8.90;79.36;97397.38;5021155;28;20057;-67
2024/04/06 04:01:28;;;;;;;0.47;0.47;;;;;;;8.69;79.30;97391.25;5008458;28;20053;-67
2024/04/06 04:03:54;;;;;;;0.40;0.40;;;;;;;9.11;79.45;97431.16;5006566;28;20527;-68
2024/04/06 04:06:20;;;;;;;0.40;0.40;;;;;;;9.01;79.51;97415.88;5021949;28;20063;-67
2024/04/06 04:08:46;;;;;;;0.38;0.38;;;;;;;9.18;78.94;97436.91;5021154;28;20432;-68
2024/04/06 04:11:11;;;;;;;0.40;0.40;;;;;;;9.05;78.38;97424.28;5020911;28;20054;-67
2024/04/06 04:13:37;;;;;;;0.40;0.40;;;;;;;8.99;78.92;97439.50;5004554;28;20446;-67
2024/04/06 04:16:04;;;;;;;0.40;0.40;;;;;;;8.97;78.33;97447.31;5021100;28;20053;-67
2024/04/06 04:18:29;;;;;;;0.50;0.50;;;;;;;9.00;78.46;97452.16;5020748;28;20049;-67
2024/04/06 04:20:55;;;;;;;0.40;0.40;;;;;;;9.00;78.66;97454.91;5003979;28;20054;-68
2024/04/06 04:23:21;;;;;;;0.40;0.40;;;;;;;8.78;78.10;97427.81;5020887;28;20156;-67
2024/04/06 04:25:47;;;;;;;0.30;0.30;;;;;;;8.60;79.03;97409.91;5004253;28;20056;-67
2024/04/06 04:28:12;;;;;;;0.40;0.40;;;;;;;8.93;78.92;97457.47;5004401;28;20100;-67
2024/04/06 04:30:38;;;;;;;0.40;0.40;;;;;;;9.01;79.48;97459.28;5019928;28;20653;-68
2024/04/06 04:33:04;;;;;;;0.40;0.40;;;;;;;8.44;79.43;97362.09;5021219;28;20064;-67
2024/04/06 04:35:30;;;;;;;0.40;0.40;;;;;;;9.09;78.57;97488.72;5020815;28;20164;-68
2024/04/06 04:37:56;;;;;;;0.40;0.40;;;;;;;8.94;79.15;97448.03;5021198;28;20413;-66
2024/04/06 04:40:22;;;;;;;0.30;0.30;;;;;;;9.27;79.34;97451.34;5020252;28;20679;-68
2024/04/06 04:42:48;;;;;;;0.40;0.40;;;;;;;9.01;78.59;97379.16;5020889;28;20119;-68
2024/04/06 04:45:14;;;;;;;0.40;0.40;;;;;;;9.58;78.09;97451.44;5020725;28;20065;-67
2024/04/06 04:47:43;;;;;;;0.40;0.40;;;;;;;9.52;76.95;97425.19;5020563;28;20061;-67
2024/04/06 04:50:09;;;;;;;0.40;0.40;;;;;;;9.37;76.82;97390.03;5003341;28;20527;-67
2024/04/06 04:52:35;;;;;;;0.40;0.40;;;;;;;9.91;77.23;97460.22;5013638;28;20054;-67
2024/04/06 04:55:02;;;;;;;0.50;0.50;;;;;;;10.17;76.52;97457.78;5014269;28;20049;-67
2024/04/06 04:57:29;;;;;;;0.40;0.40;;;;;;;10.37;74.70;97462.22;5020526;28;20057;-67
2024/04/06 04:59:54;;;;;;;0.50;0.50;;;;;;;10.60;73.86;97534.41;5013645;28;20386;-66
2024/04/06 05:02:20;;;;;;;0.50;0.50;;;;;;;9.34;75.63;97341.00;5020031;28;20058;-66
2024/04/06 05:04:46;;;;;;;0.40;0.40;;;;;;;10.43;74.96;97465.53;5019601;28;20053;-67
2024/04/06 05:07:12;;;;;;;0.50;0.50;;;;;;;10.62;74.31;97462.84;5020142;28;20060;-67
2024/04/06 05:09:38;;;;;;;0.45;0.45;;;;;;;10.83;73.32;97462.53;5019668;28;20060;-68
2024/04/06 05:12:04;;;;;;;0.50;0.50;;;;;;;10.95;72.34;97454.88;5020342;28;20456;-66
2024/04/06 05:14:30;;;;;;;0.47;0.47;;;;;;;11.02;71.82;97454.25;5020578;28;20470;-66
2024/04/06 05:16:56;;;;;;;0.50;0.50;;;;;;;11.01;71.97;97419.34;5020098;28;20564;-66
2024/04/06 05:19:21;;;;;;;0.50;0.50;;;;;;;11.48;71.07;97455.97;5020126;28;20085;-68
2024/04/06 05:21:47;;;;;;;0.47;0.47;;;;;;;11.70;69.89;97458.03;5020375;28;20064;-67
2024/04/06 05:24:13;;;;;;;0.50;0.50;;;;;;;11.08;69.97;97386.25;5020714;28;20577;-67
2024/04/06 05:26:44;;;;;;;0.50;0.50;;;;;;;11.62;71.04;97453.47;5021079;28;20080;-67
2024/04/06 05:29:10;;;;;;;0.50;0.50;;;;;;;11.75;70.70;97450.22;5003946;28;20072;-67
2024/04/06 05:31:36;;;;;;;0.50;0.50;;;;;;;11.87;70.30;97452.03;5020431;28;20065;-67
2024/04/06 05:34:02;;;;;;;0.50;0.50;;;;;;;11.55;70.07;97375.69;5023917;28;20064;-67
2024/04/06 05:36:28;;;;;;;0.50;0.50;;;;;;;11.76;70.74;97423.28;5023682;28;20049;-66
2024/04/06 05:38:53;;;;;;;0.50;0.50;;;;;;;11.90;70.87;97445.75;5023507;28;20057;-67
2024/04/06 05:41:19;;;;;;;0.60;0.60;;;;;;;12.37;70.26;97470.34;5023764;28;20154;-67
2024/04/06 05:43:45;;;;;;;0.50;0.50;;;;;;;12.44;69.46;97476.81;5023598;28;20417;-67
2024/04/06 05:46:10;;;;;;;0.55;0.55;;;;;;;12.49;69.21;97462.63;5007503;28;20099;-67
2024/04/06 05:48:38;;;;;;;0.60;0.60;;;;;;;12.51;67.83;97453.91;5023624;28;20719;-69
2024/04/06 05:51:04;;;;;;;0.60;0.60;;;;;;;12.67;68.00;97469.28;5009106;28;20531;-69
2024/04/06 05:53:30;;;;;;;0.60;0.60;;;;;;;12.80;66.80;97450.41;5026918;28;20053;-66
2024/04/06 05:55:55;;;;;;;0.60;0.60;;;;;;;13.04;66.99;97461.91;5013406;28;20539;-67
2024/04/06 05:58:21;;;;;;;0.60;0.60;;;;;;;13.23;66.54;97453.44;5023094;28;20057;-67
2024/04/06 06:00:48;;;;;;;0.60;0.60;;;;;;;13.62;65.25;97470.63;5022471;28;20065;-67
2024/04/06 06:03:14;;;;;;;0.60;0.60;;;;;;;13.59;62.84;97393.44;5023088;28;20512;-67
2024/04/06 06:05:40;;;;;;;0.60;0.60;;;;;;;14.09;61.25;97417.00;5023350;28;20128;-68
2024/04/06 06:08:06;;;;;;;0.60;0.60;;;;;;;14.40;59.96;97466.69;5023647;28;20057;-68
2024/04/06 06:10:31;;;;;;;0.50;0.50;;;;;;;14.46;60.33;97465.94;5023329;28;20152;-69
2024/04/06 06:12:58;;;;;;;0.60;0.60;;;;;;;14.72;58.70;97502.00;5024042;28;20056;-67
2024/04/06 06:15:23;;;;;;;0.60;0.60;;;;;;;14.96;57.86;97467.13;5023556;28;20065;-69
2024/04/06 06:17:49;;;;;;;0.60;0.60;;;;;;;15.41;56.75;97471.41;5023550;28;20053;-69
2024/04/06 06:20:15;;;;;;;0.65;0.65;;;;;;;15.64;55.66;97461.53;5023854;28;20298;-68
2024/04/06 06:22:41;;;;;;;0.70;0.70;;;;;;;15.47;55.46;97419.59;5023420;28;20124;-68
2024/04/06 06:25:06;;;;;;;0.70;0.70;;;;;;;15.03;55.56;97305.38;5023257;28;20053;-68
2024/04/06 06:27:32;;;;;;;0.70;0.70;;;;;;;15.93;54.74;97392.59;5007076;28;20547;-67
2024/04/06 06:30:02;;;;;;;0.70;0.70;;;;;;;16.59;54.33;97454.19;5023079;28;20072;-68
2024/04/06 06:32:27;;;;;;;0.70;0.70;;;;;;;16.78;53.64;97426.97;5006204;28;20093;-68
2024/04/06 06:34:53;;;;;;;0.73;0.73;;;;;;;16.92;53.66;97438.16;5023054;28;20107;-68
2024/04/06 06:37:19;;;;;;;0.70;0.70;;;;;;;16.98;53.46;97436.53;5023255;28;20061;-68
2024/04/06 06:39:45;;;;;;;0.70;0.70;;;;;;;17.24;53.34;97436.09;5022793;28;20053;-68
2024/04/06 06:42:11;;;;;;;0.77;0.77;;;;;;;17.41;51.51;97438.84;5006025;28;20484;-68
2024/04/06 06:44:38;;;;;;;0.80;0.80;;;;;;;17.52;51.04;97469.66;5005586;28;20057;-68
2024/04/06 06:47:05;;;;;;;0.80;0.80;;;;;;;17.71;50.31;97433.56;5022616;28;20053;-68
2024/04/06 06:49:31;;;;;;;0.70;0.70;;;;;;;17.89;49.36;97425.06;5005901;28;20054;-67
2024/04/06 06:51:57;;;;;;;0.77;0.77;;;;;;;18.05;48.60;97425.38;5022496;28;20053;-67
2024/04/06 06:54:24;;;;;;;0.80;0.80;;;;;;;18.16;48.21;97411.28;5022497;28;20061;-68
2024/04/06 06:56:49;;;;;;;0.90;0.90;;;;;;;18.43;46.95;97421.50;5023000;28;20112;-67
2024/04/06 06:59:15;;;;;;;0.80;0.80;;;;;;;18.48;47.08;97426.69;5023220;28;20053;-68
2024/04/06 07:01:41;;;;;;;0.80;0.80;;;;;;;18.62;45.89;97429.38;5022758;28;20061;-68
2024/04/06 07:04:07;;;;;;;0.80;0.80;;;;;;;18.50;45.67;97379.38;5005821;28;20054;-68
2024/04/06 07:06:32;;;;;;;0.80;0.80;;;;;;;18.42;44.71;97397.47;5022248;28;20580;-68
2024/04/06 07:08:58;;;;;;;0.77;0.77;;;;;;;18.04;44.75;97348.06;5021651;28;20060;-66
2024/04/06 07:11:24;;;;;;;0.80;0.80;;;;;;;18.84;44.59;97436.38;5021357;28;20057;-66
2024/04/06 07:13:50;;;;;;;0.85;0.85;;;;;;;19.10;44.52;97434.94;5017236;28;20238;-66
2024/04/06 07:16:16;;;;;;;0.80;0.80;;;;;;;18.81;43.88;97353.00;5001893;28;20430;-68
2024/04/06 07:18:42;;;;;;;0.80;0.80;;;;;;;19.21;43.58;97408.34;5003958;28;20064;-68
2024/04/06 07:21:13;;;;;;;0.80;0.80;;;;;;;19.55;44.24;97439.31;5021242;28;20064;-69
2024/04/06 07:23:39;;;;;;;0.93;0.93;;;;;;;19.37;46.86;97431.06;5021475;28;20056;-69
2024/04/06 07:26:05;;;;;;;0.85;0.85;;;;;;;18.86;47.74;97424.75;5021565;28;20460;-68
2024/04/06 07:28:31;;;;;;;0.80;0.80;;;;;;;18.80;47.35;97435.63;5005115;28;20053;-69
2024/04/06 07:30:57;;;;;;;0.80;0.80;;;;;;;19.28;47.16;97427.94;4989475;28;20061;-69
2024/04/06 07:33:23;;;;;;;0.90;0.90;;;;;;;19.44;46.07;97428.16;5021778;28;20041;-67
2024/04/06 07:35:49;;;;;;;0.80;0.80;;;;;;;19.70;45.03;97439.91;5005366;28;20099;-67
2024/04/06 07:38:15;;;;;;;0.90;0.90;;;;;;;20.01;44.33;97431.06;5021438;28;20132;-68
2024/04/06 07:40:41;;;;;;;0.80;0.80;;;;;;;20.17;44.57;97416.41;5020969;28;20111;-68
2024/04/06 07:43:07;;;;;;;0.80;0.80;;;;;;;20.13;44.81;97422.06;5021734;28;20077;-69
2024/04/06 07:45:33;;;;;;;0.80;0.80;;;;;;;20.23;43.79;97417.53;5021793;28;20045;-67
2024/04/06 07:47:58;;;;;;;0.95;0.95;;;;;;;20.26;43.60;97374.47;5004915;28;20080;-68
2024/04/06 07:50:24;;;;;;;0.93;0.93;;;;;;;19.75;46.33;97467.56;5020739;28;20141;-67
2024/04/06 07:52:50;;;;;;;0.90;0.90;;;;;;;20.02;44.82;97426.22;5021163;28;20429;-69
2024/04/06 07:55:16;;;;;;;0.80;0.80;;;;;;;20.38;43.08;97427.34;5020506;28;20555;-69
2024/04/06 07:57:45;;;;;;;0.80;0.80;;;;;;;20.25;45.20;97417.91;5020885;28;20064;-68
2024/04/06 08:00:14;;;;;;;0.90;0.90;;;;;;;19.62;45.88;97362.53;5020790;28;20061;-70
2024/04/06 08:02:41;;;;;;;0.90;0.90;;;;;;;20.37;44.26;97414.50;5021067;28;20453;-68
2024/04/06 08:05:08;;;;;;;0.90;0.90;;;;;;;20.88;43.80;97416.88;5021041;28;20827;-69
2024/04/06 08:07:34;;;;;;;0.90;0.90;;;;;;;20.83;43.69;97403.28;5021801;28;20084;-68
2024/04/06 08:10:01;;;;;;;0.80;0.80;;;;;;;20.88;43.55;97354.91;5005215;28;20057;-68
2024/04/06 08:12:27;;;;;;;0.90;0.90;;;;;;;21.38;43.22;97400.66;5005386;28;20053;-68
2024/04/06 08:14:54;;;;;;;1.00;1.00;;;;;;;21.44;41.85;97396.09;5017518;28;20050;-69
2024/04/06 08:17:20;;;;;;;1.00;1.00;;;;;;;21.43;41.06;97383.25;4985552;28;20053;-69
2024/04/06 08:19:46;;;;;;;0.90;0.90;;;;;;;20.99;40.67;97231.59;5013006;28;20542;-69
2024/04/06 08:22:12;;;;;;;1.00;1.00;;;;;;;22.14;41.48;97397.44;5021226;28;20089;-68
2024/04/06 08:24:40;;;;;;;1.10;1.10;;;;;;;22.39;40.54;97389.19;5004379;28;20057;-68
2024/04/06 08:27:06;;;;;;;1.00;1.00;;;;;;;23.01;38.26;97392.91;5020625;28;20057;-68
2024/04/06 08:29:32;;;;;;;0.95;0.95;;;;;;;23.07;37.82;97357.22;5003837;28;20053;-67
2024/04/06 08:31:58;;;;;;;1.10;1.10;;;;;;;22.45;39.97;97350.72;5020407;28;20516;-67
2024/04/06 08:34:24;;;;;;;0.90;0.90;;;;;;;22.85;39.23;97385.25;5020420;28;20102;-66
2024/04/06 08:36:49;;;;;;;1.00;1.00;;;;;;;22.33;39.82;97388.13;5004831;28;20080;-68
2024/04/06 08:39:15;;;;;;;0.90;0.90;;;;;;;21.60;39.79;97375.66;5004078;28;20053;-68
2024/04/06 08:41:41;;;;;;;1.00;1.00;;;;;;;21.84;40.20;97388.47;5020381;28;20421;-67
2024/04/06 08:44:11;;;;;;;0.90;0.90;;;;;;;22.07;39.66;97380.66;5004077;28;20057;-68
2024/04/06 08:46:40;;;;;;;0.90;0.90;;;;;;;22.97;38.93;97369.63;5021142;28;20053;-68
2024/04/06 08:49:09;;;;;;;1.00;1.00;;;;;;;22.46;38.55;97377.72;5020501;28;20061;-68
2024/04/06 08:51:39;;;;;;;1.00;1.00;;;;;;;22.67;38.05;97367.19;5021543;28;20599;-68
2024/04/06 08:54:05;;;;;;;0.90;0.90;;;;;;;23.02;38.63;97377.53;5003704;28;20045;-67
2024/04/06 08:56:31;;;;;;;1.10;1.10;;;;;;;23.62;36.52;97351.22;5020379;28;20053;-68
2024/04/06 08:58:56;;;;;;;1.10;1.10;;;;;;;23.36;36.11;97318.47;5003951;28;20667;-67
2024/04/06 09:01:22;;;;;;;1.00;1.00;;;;;;;24.07;36.30;97357.56;5020501;28;20607;-67
2024/04/06 09:03:48;;;;;;;1.00;1.00;;;;;;;24.07;35.72;97357.56;5019721;28;20057;-67
2024/04/06 09:06:21;;;;;;;1.00;1.00;;;;;;;24.19;35.90;97359.59;5021777;28;20054;-70
2024/04/06 09:08:47;;;;;;;1.08;1.08;;;;;;;24.19;35.59;97359.59;5023907;28;20103;-67
2024/04/06 09:11:13;;;;;;;1.00;1.00;;;;;;;24.10;35.77;97367.19;5007358;28;20183;-68
2024/04/06 09:13:40;;;;;;;1.00;1.00;;;;;;;23.96;36.16;97311.00;5024566;28;20064;-68
2024/04/06 09:16:09;;;;;;;1.10;1.10;;;;;;;24.90;34.97;97353.22;5008183;28;20069;-68
2024/04/06 09:18:41;;;;;;;1.20;1.20;;;;;;;25.05;34.56;97351.44;5007580;28;20483;-68
2024/04/06 09:21:07;;;;;;;1.10;1.10;;;;;;;24.62;34.37;97314.50;5023647;28;20076;-69
2024/04/06 09:23:34;;;;;;;1.23;1.23;;;;;;;25.06;34.12;97360.75;5023420;28;20590;-67
2024/04/06 09:26:01;;;;;;;1.40;1.40;;;;;;;24.99;33.84;97361.81;5024140;28;20096;-69
2024/04/06 09:28:27;;;;;;;1.30;1.30;;;;;;;25.31;34.38;97349.31;5024615;28;20528;-68
2024/04/06 09:30:56;;;;;;;1.20;1.20;;;;;;;25.03;34.93;97288.78;5024037;28;20053;-67
2024/04/06 09:33:23;;;;;;;1.23;1.23;;;;;;;24.63;35.89;97338.72;5024398;28;20065;-68
2024/04/06 09:35:50;;;;;;;1.10;1.10;;;;;;;24.11;36.44;97335.59;5023760;28;20068;-66
2024/04/06 09:38:17;;;;;;;1.10;1.10;;;;;;;23.73;36.34;97329.06;5024414;28;20083;-66
2024/04/06 09:40:47;;;;;;;1.15;1.15;;;;;;;24.48;35.95;97339.66;5007266;28;20054;-67
2024/04/06 09:43:14;;;;;;;1.30;1.30;;;;;;;24.98;34.94;97331.88;5007675;28;20049;-68
2024/04/06 09:45:41;;;;;;;1.10;1.10;;;;;;;25.45;33.27;97322.53;5023760;28;20132;-68
2024/04/06 09:48:08;;;;;;;1.20;1.20;;;;;;;25.81;33.21;97314.25;5023503;28;20539;-68
2024/04/06 09:50:38;;;;;;;1.27;1.27;;;;;;;26.27;32.28;97313.25;5006017;28;20061;-67
2024/04/06 09:53:08;;;;;;;1.30;1.30;;;;;;;26.54;31.90;97282.84;5023907;28;20098;-65
2024/04/06 09:55:37;;;;;;;1.40;1.40;;;;;;;26.06;31.98;97226.84;5023779;28;20515;-68
2024/04/06 09:58:03;;;;;;;1.30;1.30;;;;;;;26.85;31.35;97297.00;5023485;28;20053;-66
2024/04/06 10:00:30;;;;;;;1.40;1.40;;;;;;;26.32;31.75;97190.47;5022810;28;20053;-67
2024/04/06 10:02:55;;;;;;;1.50;1.50;;;;;;;27.12;31.09;97294.16;5023103;28;20520;-67
2024/04/06 10:05:21;;;;;;;1.30;1.30;;;;;;;27.02;31.32;97292.56;5022989;28;20061;-67
2024/04/06 10:07:52;;;;;;;1.42;1.42;;;;;;;26.96;30.75;97285.94;5023184;28;20056;-67
2024/04/06 10:10:18;;;;;;;1.48;1.48;;;;;;;26.57;30.67;97252.72;5023126;28;20050;-68
2024/04/06 10:12:46;;;;;;;1.40;1.40;;;;;;;26.51;31.38;97277.31;5006863;28;20068;-67
2024/04/06 10:15:17;;;;;;;1.15;1.15;;;;;;;26.56;31.67;97271.00;5020659;28;20058;-68
2024/04/06 10:17:47;;;;;;;1.35;1.35;;;;;;;27.07;31.40;97274.09;4986541;28;20531;-68
2024/04/06 10:20:23;;;;;;;1.20;1.20;;;;;;;26.45;31.46;97188.25;5018683;28;20374;-68
2024/04/06 10:22:59;;;;;;;1.35;1.35;;;;;;;26.39;32.17;97278.22;5022979;28;20056;-67
2024/04/06 10:25:39;;;;;;;1.35;1.35;;;;;;;26.60;31.63;97278.13;5020072;28;20694;-68
2024/04/06 10:28:07;;;;;;;1.25;1.25;;;;;;;26.56;31.79;97263.28;5023700;28;20132;-68
2024/04/06 10:30:37;;;;;;;1.35;1.35;;;;;;;26.43;31.46;97276.03;5022621;28;20542;-67
2024/04/06 10:33:04;;;;;;;1.33;1.33;;;;;;;25.96;31.42;97213.84;5022727;28;20057;-66
2024/04/06 10:35:29;;;;;;;1.30;1.30;;;;;;;26.54;31.37;97265.03;5005226;28;20435;-66
2024/04/06 10:37:55;;;;;;;1.20;1.20;;;;;;;26.21;31.45;97263.97;5022772;28;20146;-68
2024/04/06 10:40:27;;;;;;;1.27;1.27;;;;;;;26.32;30.89;97258.66;5022139;28;20053;-67
2024/04/06 10:42:53;;;;;;;1.20;1.20;;;;;;;25.80;31.77;97253.06;4996091;28;20053;-65
2024/04/06 10:45:19;;;;;;;1.23;1.23;;;;;;;25.42;32.63;97261.03;5022709;28;20065;-67
2024/04/06 10:47:45;;;;;;;1.30;1.30;;;;;;;25.65;32.63;97220.81;5023139;28;20045;-66
2024/04/06 10:50:11;;;;;;;1.42;1.42;;;;;;;26.07;31.55;97250.34;5022554;28;20073;-65
2024/04/06 10:52:39;;;;;;;1.13;1.13;;;;;;;25.63;31.47;97229.00;5022710;28;20081;-67
2024/04/06 10:55:27;;;;;;;1.20;1.20;;;;;;;24.95;31.97;97218.59;5022826;28;20444;-67
2024/04/06 10:57:51;;;;;;;1.10;1.10;;;;;;;26.07;31.00;97245.47;5023020;28;20053;-67
2024/04/06 11:00:17;;;;;;;1.40;1.40;;;;;;;25.85;30.25;97190.78;5006519;28;20237;-67
2024/04/06 11:02:44;;;;;;;1.27;1.27;;;;;;;26.52;30.05;97239.13;5005923;28;20069;-67
2024/04/06 11:05:10;;;;;;;1.30;1.30;;;;;;;26.84;29.75;97235.72;5006095;28;20053;-67
2024/04/06 11:07:37;;;;;;;1.30;1.30;;;;;;;26.70;29.33;97227.78;5022219;28;20064;-68
2024/04/06 11:10:04;;;;;;;1.38;1.38;;;;;;;26.54;29.53;97220.31;5005615;28;20436;-66
2024/04/06 11:12:30;;;;;;;1.10;1.10;;;;;;;26.45;28.68;97176.88;5022750;28;20072;-67
2024/04/06 11:15:00;;;;;;;1.35;1.35;;;;;;;26.51;28.77;97217.63;5018660;28;20076;-68
2024/04/06 11:17:29;;;;;;;1.48;1.48;;;;;;;25.87;29.97;97210.19;5002472;28;20181;-67
2024/04/06 11:19:55;;;;;;;1.30;1.30;;;;;;;25.45;30.36;97245.94;5014939;28;20108;-67
2024/04/06 11:22:22;;;;;;;1.30;1.30;;;;;;;25.13;30.46;97128.78;5022148;28;20059;-66
2024/04/06 11:24:48;;;;;;;1.13;1.13;;;;;;;25.88;30.38;97197.56;5022048;28;20049;-68
2024/04/06 11:27:21;;;;;;;1.15;1.15;;;;;;;24.58;32.22;97155.16;5021965;28;20115;-65
2024/04/06 11:29:49;;;;;;;1.20;1.20;;;;;;;24.77;32.18;97202.25;5004451;28;20586;-67
2024/04/06 11:32:19;;;;;;;1.15;1.15;;;;;;;24.37;32.24;97206.91;5002291;28;20053;-66
2024/04/06 11:34:46;;;;;;;1.15;1.15;;;;;;;24.22;32.64;97137.84;5013465;28;20440;-66